createdAt,value
2023-04-11T00:00:01.717Z,1018
2023-04-11T00:01:01.901Z,1017.9
2023-04-11T00:02:01.953Z,1018
2023-04-11T00:03:02.439Z,1017.9
2023-04-11T00:04:02.946Z,1017.9
2023-04-11T00:05:02.068Z,1017.9
2023-04-11T00:06:01.931Z,1017.9
2023-04-11T00:07:01.794Z,1017.9
2023-04-11T00:08:01.799Z,1017.9
2023-04-11T00:09:01.750Z,1017.9
2023-04-11T00:10:01.774Z,1017.9
2023-04-11T00:11:01.724Z,1017.9
2023-04-11T00:12:01.691Z,1017.8
2023-04-11T00:13:01.697Z,1017.8
2023-04-11T00:14:01.728Z,1017.8
2023-04-11T00:15:02.729Z,1017.8
2023-04-11T00:16:02.946Z,1017.7
2023-04-11T00:18:01.855Z,1017.7
2023-04-11T00:19:01.708Z,1017.7
2023-04-11T00:20:02.017Z,1017.7
2023-04-11T00:21:01.670Z,1017.7
2023-04-11T00:22:01.711Z,1017.7
2023-04-11T00:23:01.748Z,1017.7
2023-04-11T00:24:01.715Z,1017.6
2023-04-11T00:25:02.667Z,1017.6
2023-04-11T00:26:02.640Z,1017.6
2023-04-11T00:27:02.660Z,1017.6
2023-04-11T00:28:02.567Z,1017.6
2023-04-11T00:29:02.575Z,1017.5
2023-04-11T00:30:02.441Z,1017.5
2023-04-11T00:31:02.548Z,1017.6
2023-04-11T00:32:02.683Z,1017.5
2023-04-11T00:33:02.804Z,1017.5
2023-04-11T00:34:02.493Z,1017.5
2023-04-11T00:35:02.536Z,1017.5
2023-04-11T00:36:02.743Z,1017.5
2023-04-11T00:37:02.650Z,1017.5
2023-04-11T00:38:02.587Z,1017.4
2023-04-11T00:39:02.389Z,1017.5
2023-04-11T00:40:02.498Z,1017.5
2023-04-11T00:41:02.238Z,1017.4
2023-04-11T00:42:02.359Z,1017.4
2023-04-11T00:43:02.328Z,1017.4
2023-04-11T00:44:02.142Z,1017.4
2023-04-11T00:45:02.246Z,1017.4
2023-04-11T00:46:02.050Z,1017.3
2023-04-11T00:47:02.321Z,1017.4
2023-04-11T00:48:02.599Z,1017.4
2023-04-11T00:49:02.367Z,1017.3
2023-04-11T00:50:02.318Z,1017.3
2023-04-11T00:51:02.315Z,1017.3
2023-04-11T00:52:02.307Z,1017.4
2023-04-11T00:53:02.117Z,1017.4
2023-04-11T00:54:02.207Z,1017.3
2023-04-11T00:55:02.067Z,1017.3
2023-04-11T00:56:02.141Z,1017.3
2023-04-11T00:57:01.948Z,1017.3
2023-04-11T00:58:01.956Z,1017.3
2023-04-11T00:59:01.852Z,1017.3
2023-04-11T01:00:02.410Z,1017.3
2023-04-11T01:01:02.545Z,1017.3
2023-04-11T01:02:02.495Z,1017.3
2023-04-11T01:03:03.051Z,1017.3
2023-04-11T01:04:02.488Z,1017.3
2023-04-11T01:05:02.293Z,1017.3
2023-04-11T01:06:02.392Z,1017.3
2023-04-11T01:07:02.263Z,1017.2
2023-04-11T01:08:02.130Z,1017.2
2023-04-11T01:09:02.138Z,1017.2
2023-04-11T01:10:02.005Z,1017.2
2023-04-11T01:11:02.051Z,1017.1
2023-04-11T01:12:01.977Z,1017.2
2023-04-11T01:13:01.921Z,1017.2
2023-04-11T01:14:01.801Z,1017.2
2023-04-11T01:15:01.958Z,1017.2
2023-04-11T01:16:01.831Z,1017.1
2023-04-11T01:17:02.275Z,1017.2
2023-04-11T01:18:02.922Z,1017.2
2023-04-11T01:19:01.588Z,1017.2
2023-04-11T01:20:01.850Z,1017.2
2023-04-11T01:21:01.597Z,1017.2
2023-04-11T01:22:01.750Z,1017.2
2023-04-11T01:23:02.760Z,1017.1
2023-04-11T01:24:02.603Z,1017.2
2023-04-11T01:25:02.678Z,1017.2
2023-04-11T01:26:02.591Z,1017.3
2023-04-11T01:27:02.534Z,1017.2
2023-04-11T01:28:02.431Z,1017.2
2023-04-11T01:29:02.449Z,1017.2
2023-04-11T01:30:02.424Z,1017.2
2023-04-11T01:31:02.558Z,1017.3
2023-04-11T01:32:02.595Z,1017.3
2023-04-11T01:33:02.757Z,1017.2
2023-04-11T01:34:02.516Z,1017.2
2023-04-11T01:35:02.692Z,1017.1
2023-04-11T01:36:02.566Z,1017.2
2023-04-11T01:37:02.530Z,1017.1
2023-04-11T01:38:02.367Z,1017.1
2023-04-11T01:39:02.451Z,1017.2
2023-04-11T01:40:02.363Z,1017.1
2023-04-11T01:41:02.348Z,1017.2
2023-04-11T01:42:02.307Z,1017.1
2023-04-11T01:43:02.370Z,1017.1
2023-04-11T01:44:02.165Z,1017.1
2023-04-11T01:45:02.150Z,1017.1
2023-04-11T01:46:02.011Z,1017.1
2023-04-11T01:47:01.970Z,1017
2023-04-11T01:48:02.360Z,1017.1
2023-04-11T01:49:02.372Z,1017
2023-04-11T01:50:02.200Z,1017.1
2023-04-11T01:51:02.049Z,1017
2023-04-11T01:52:01.944Z,1017
2023-04-11T01:53:02.055Z,1017
2023-04-11T01:54:01.881Z,1017
2023-04-11T01:55:01.908Z,1017
2023-04-11T01:56:01.852Z,1016.9
2023-04-11T01:57:01.756Z,1017
2023-04-11T01:58:01.698Z,1017
2023-04-11T01:59:02.730Z,1016.9
2023-04-11T02:00:02.528Z,1016.9
2023-04-11T02:01:02.713Z,1017
2023-04-11T02:02:02.954Z,1016.9
2023-04-11T02:03:02.485Z,1017
2023-04-11T02:04:02.718Z,1016.9
2023-04-11T02:05:02.408Z,1017
2023-04-11T02:06:02.472Z,1016.9
2023-04-11T02:07:02.345Z,1016.9
2023-04-11T02:08:02.336Z,1016.9
2023-04-11T02:09:02.387Z,1016.8
2023-04-11T02:10:02.139Z,1016.8
2023-04-11T02:11:02.196Z,1016.8
2023-04-11T02:12:02.060Z,1016.8
2023-04-11T02:13:02.081Z,1016.7
2023-04-11T02:14:01.954Z,1016.7
2023-04-11T02:15:02.044Z,1016.8
2023-04-11T02:16:01.985Z,1016.8
2023-04-11T02:17:01.728Z,1016.7
2023-04-11T02:18:01.932Z,1016.7
2023-04-11T02:19:01.643Z,1016.6
2023-04-11T02:20:02.674Z,1016.7
2023-04-11T02:21:02.585Z,1016.6
2023-04-11T02:22:02.646Z,1016.6
2023-04-11T02:23:02.541Z,1016.6
2023-04-11T02:24:02.589Z,1016.6
2023-04-11T02:25:02.518Z,1016.5
2023-04-11T02:26:02.632Z,1016.6
2023-04-11T02:27:02.486Z,1016.6
2023-04-11T02:28:02.562Z,1016.5
2023-04-11T02:29:02.463Z,1016.5
2023-04-11T02:30:02.584Z,1016.4
2023-04-11T02:31:02.796Z,1016.5
2023-04-11T02:33:02.318Z,1016.4
2023-04-11T02:34:02.007Z,1016.4
2023-04-11T02:35:02.048Z,1016.4
2023-04-11T02:36:02.268Z,1016.3
2023-04-11T02:37:01.924Z,1016.3
2023-04-11T02:38:02.009Z,1016.4
2023-04-11T02:39:01.905Z,1016.3
2023-04-11T02:40:02.011Z,1016.4
2023-04-11T02:41:01.803Z,1016.3
2023-04-11T02:42:01.834Z,1016.3
2023-04-11T02:43:01.703Z,1016.3
2023-04-11T02:44:01.830Z,1016.3
2023-04-11T02:45:01.676Z,1016.3
2023-04-11T02:46:13.711Z,1016.3
2023-04-11T02:48:02.611Z,1016.2
2023-04-11T02:49:02.478Z,1016.2
2023-04-11T02:50:02.438Z,1016.2
2023-04-11T02:51:02.312Z,1016.2
2023-04-11T02:52:02.380Z,1016.1
2023-04-11T02:53:02.381Z,1016.1
2023-04-11T02:54:02.150Z,1016.1
2023-04-11T02:55:02.195Z,1016.1
2023-04-11T02:56:01.999Z,1016
2023-04-11T02:57:02.152Z,1016
2023-04-11T02:58:02.071Z,1016
2023-04-11T02:59:02.108Z,1016
2023-04-11T03:00:02.797Z,1016
2023-04-11T03:01:01.821Z,1016
2023-04-11T03:02:02.366Z,1016
2023-04-11T03:03:02.636Z,1016.1
2023-04-11T03:04:02.820Z,1016.1
2023-04-11T03:05:02.600Z,1016.1
2023-04-11T03:06:02.642Z,1016
2023-04-11T03:07:02.541Z,1016.1
2023-04-11T03:08:02.587Z,1016.1
2023-04-11T03:09:02.539Z,1016
2023-04-11T03:10:02.547Z,1016.2
2023-04-11T03:11:02.409Z,1016.2
2023-04-11T03:12:02.656Z,1016.2
2023-04-11T03:13:02.326Z,1016.1
2023-04-11T03:14:02.454Z,1016.2
2023-04-11T03:15:02.384Z,1016.2
2023-04-11T03:16:02.392Z,1016.2
2023-04-11T03:17:02.274Z,1016.2
2023-04-11T03:18:02.511Z,1016.2
2023-04-11T03:19:02.383Z,1016.2
2023-04-11T03:20:02.184Z,1016.1
2023-04-11T03:21:02.227Z,1016.1
2023-04-11T03:22:02.082Z,1016.1
2023-04-11T03:23:02.196Z,1016.1
2023-04-11T03:24:02.132Z,1016.1
2023-04-11T03:25:02.072Z,1016.2
2023-04-11T03:26:01.938Z,1016.2
2023-04-11T03:27:02.010Z,1016.2
2023-04-11T03:28:01.899Z,1016.1
2023-04-11T03:29:01.938Z,1016.1
2023-04-11T03:30:01.891Z,1016.1
2023-04-11T03:31:02.052Z,1016.1
2023-04-11T03:33:02.017Z,1016
2023-04-11T03:34:01.762Z,1016
2023-04-11T03:35:01.940Z,1016
2023-04-11T03:36:01.796Z,1016
2023-04-11T03:37:01.674Z,1016
2023-04-11T03:38:01.705Z,1016
2023-04-11T03:39:01.795Z,1016
2023-04-11T03:40:01.724Z,1015.9
2023-04-11T03:41:02.690Z,1016
2023-04-11T03:42:02.584Z,1016
2023-04-11T03:43:05.241Z,1015.8
2023-04-11T03:44:01.961Z,1015.9
2023-04-11T03:45:01.956Z,1015.9
2023-04-11T03:46:01.854Z,1015.9
2023-04-11T03:47:01.990Z,1015.9
2023-04-11T03:48:02.130Z,1015.9
2023-04-11T03:49:01.848Z,1015.9
2023-04-11T03:50:02.009Z,1015.9
2023-04-11T03:51:01.796Z,1015.8
2023-04-11T03:52:01.858Z,1015.8
2023-04-11T03:53:01.812Z,1015.9
2023-04-11T03:54:01.704Z,1015.8
2023-04-11T03:55:02.758Z,1015.8
2023-04-11T03:56:02.634Z,1015.8
2023-04-11T03:57:02.629Z,1015.8
2023-04-11T03:58:02.574Z,1015.8
2023-04-11T03:59:02.694Z,1015.8
2023-04-11T04:00:03.216Z,1015.8
2023-04-11T04:01:02.069Z,1015.7
2023-04-11T04:02:03.021Z,1015.7
2023-04-11T04:03:02.575Z,1015.7
2023-04-11T04:04:04.484Z,1015.7
2023-04-11T04:05:02.686Z,1015.6
2023-04-11T04:06:02.805Z,1015.6
2023-04-11T04:07:01.700Z,1015.6
2023-04-11T04:08:01.761Z,1015.6
2023-04-11T04:09:01.715Z,1015.5
2023-04-11T04:10:01.822Z,1015.5
2023-04-11T04:11:02.759Z,1015.5
2023-04-11T04:12:02.606Z,1015.5
2023-04-11T04:13:02.643Z,1015.5
2023-04-11T04:14:02.504Z,1015.5
2023-04-11T04:15:02.620Z,1015.4
2023-04-11T04:16:04.555Z,1015.4
2023-04-11T04:17:02.147Z,1015.4
2023-04-11T04:18:02.481Z,1015.4
2023-04-11T04:19:02.128Z,1015.5
2023-04-11T04:20:02.272Z,1015.4
2023-04-11T04:21:02.108Z,1015.4
2023-04-11T04:22:02.187Z,1015.4
2023-04-11T04:23:02.033Z,1015.5
2023-04-11T04:24:02.233Z,1015.4
2023-04-11T04:25:02.080Z,1015.4
2023-04-11T04:26:02.081Z,1015.5
2023-04-11T04:27:01.963Z,1015.4
2023-04-11T04:28:02.069Z,1015.4
2023-04-11T04:29:01.915Z,1015.4
2023-04-11T04:30:05.040Z,1015.3
2023-04-11T04:31:01.777Z,1015.4
2023-04-11T04:32:02.321Z,1015.4
2023-04-11T04:33:02.273Z,1015.4
2023-04-11T04:34:02.073Z,1015.3
2023-04-11T04:35:02.176Z,1015.3
2023-04-11T04:36:02.139Z,1015.3
2023-04-11T04:37:02.169Z,1015.3
2023-04-11T04:38:02.031Z,1015.3
2023-04-11T04:39:02.384Z,1015.3
2023-04-11T04:40:02.064Z,1015.3
2023-04-11T04:41:02.114Z,1015.3
2023-04-11T04:42:02.012Z,1015.3
2023-04-11T04:43:02.253Z,1015.3
2023-04-11T04:44:01.675Z,1015.3
2023-04-11T04:45:01.824Z,1015.3
2023-04-11T04:46:01.780Z,1015.2
2023-04-11T04:47:01.852Z,1015.3
2023-04-11T04:48:02.095Z,1015.3
2023-04-11T04:49:02.962Z,1015.3
2023-04-11T04:50:01.728Z,1015.3
2023-04-11T04:51:02.734Z,1015.3
2023-04-11T04:52:02.652Z,1015.3
2023-04-11T04:53:01.714Z,1015.3
2023-04-11T04:54:01.663Z,1015.3
2023-04-11T04:55:02.068Z,1015.3
2023-04-11T04:56:01.833Z,1015.3
2023-04-11T04:57:01.777Z,1015.3
2023-04-11T04:58:01.771Z,1015.2
2023-04-11T04:59:01.829Z,1015.2
2023-04-11T05:00:03.043Z,1015.2
2023-04-11T05:01:02.301Z,1015.2
2023-04-11T05:02:02.347Z,1015.1
2023-04-11T05:03:02.779Z,1015.1
2023-04-11T05:04:04.000Z,1015.1
2023-04-11T05:05:01.700Z,1015
2023-04-11T05:06:01.769Z,1015
2023-04-11T05:07:01.736Z,1014.9
2023-04-11T05:08:01.857Z,1014.9
2023-04-11T05:09:01.802Z,1015
2023-04-11T05:10:01.994Z,1014.9
2023-04-11T05:11:01.702Z,1014.9
2023-04-11T05:12:01.914Z,1014.9
2023-04-11T05:13:01.717Z,1014.9
2023-04-11T05:14:01.792Z,1014.9
2023-04-11T05:15:01.781Z,1014.9
2023-04-11T05:16:01.823Z,1014.8
2023-04-11T05:17:01.848Z,1014.8
2023-04-11T05:18:01.976Z,1014.8
2023-04-11T05:19:01.840Z,1014.8
2023-04-11T05:20:01.935Z,1014.8
2023-04-11T05:21:01.924Z,1014.8
2023-04-11T05:22:01.711Z,1014.7
2023-04-11T05:23:01.711Z,1014.7
2023-04-11T05:24:01.812Z,1014.7
2023-04-11T05:25:01.677Z,1014.7
2023-04-11T05:26:01.792Z,1014.7
2023-04-11T05:27:01.768Z,1014.7
2023-04-11T05:28:01.914Z,1014.6
2023-04-11T05:29:01.809Z,1014.6
2023-04-11T05:30:02.041Z,1014.6
2023-04-11T05:31:01.940Z,1014.6
2023-04-11T05:32:02.166Z,1014.5
2023-04-11T05:33:02.455Z,1014.5
2023-04-11T05:34:02.285Z,1014.5
2023-04-11T05:35:02.137Z,1014.5
2023-04-11T05:36:02.348Z,1014.5
2023-04-11T05:37:02.239Z,1014.5
2023-04-11T05:38:02.165Z,1014.5
2023-04-11T05:39:02.242Z,1014.4
2023-04-11T05:40:02.113Z,1014.4
2023-04-11T05:41:02.307Z,1014.4
2023-04-11T05:42:02.300Z,1014.4
2023-04-11T05:43:02.237Z,1014.4
2023-04-11T05:44:02.271Z,1014.4
2023-04-11T05:45:02.347Z,1014.4
2023-04-11T05:46:02.357Z,1014.4
2023-04-11T05:47:02.382Z,1014.3
2023-04-11T05:48:02.596Z,1014.3
2023-04-11T05:49:02.494Z,1014.3
2023-04-11T05:50:02.565Z,1014.3
2023-04-11T05:51:02.461Z,1014.3
2023-04-11T05:52:02.551Z,1014.3
2023-04-11T05:53:02.542Z,1014.3
2023-04-11T05:54:02.564Z,1014.3
2023-04-11T05:55:02.507Z,1014.3
2023-04-11T05:56:02.587Z,1014.2
2023-04-11T05:57:02.538Z,1014.3
2023-04-11T05:58:02.642Z,1014.3
2023-04-11T05:59:02.585Z,1014.3
2023-04-11T06:00:03.490Z,1014.3
2023-04-11T06:01:02.310Z,1014.3
2023-04-11T06:02:02.477Z,1014.3
2023-04-11T06:03:02.718Z,1014.3
2023-04-11T06:04:03.697Z,1014.3
2023-04-11T06:05:02.620Z,1014.3
2023-04-11T06:06:02.602Z,1014.3
2023-04-11T06:07:02.676Z,1014.2
2023-04-11T06:08:02.579Z,1014.2
2023-04-11T06:09:02.584Z,1014.2
2023-04-11T06:10:02.717Z,1014.1
2023-04-11T06:11:02.506Z,1014.2
2023-04-11T06:12:02.661Z,1014.1
2023-04-11T06:13:02.538Z,1014.2
2023-04-11T06:14:02.734Z,1014.1
2023-04-11T06:15:02.617Z,1014.1
2023-04-11T06:16:02.893Z,1014.1
2023-04-11T06:18:02.412Z,1014
2023-04-11T06:19:02.090Z,1014.1
2023-04-11T06:20:06.406Z,1014.1
2023-04-11T06:21:02.078Z,1014
2023-04-11T06:22:02.193Z,1014.1
2023-04-11T06:23:02.073Z,1014.1
2023-04-11T06:24:02.175Z,1014.1
2023-04-11T06:25:02.021Z,1014
2023-04-11T06:26:02.132Z,1014
2023-04-11T06:27:01.992Z,1014
2023-04-11T06:28:02.057Z,1014
2023-04-11T06:29:02.082Z,1014
2023-04-11T06:30:02.039Z,1014
2023-04-11T06:31:02.312Z,1014
2023-04-11T06:32:02.275Z,1014
2023-04-11T06:33:02.514Z,1014
2023-04-11T06:34:02.387Z,1014
2023-04-11T06:35:02.240Z,1014
2023-04-11T06:36:06.470Z,1014
2023-04-11T06:37:02.237Z,1014
2023-04-11T06:38:02.234Z,1013.9
2023-04-11T06:39:02.299Z,1013.9
2023-04-11T06:40:02.302Z,1013.9
2023-04-11T06:41:02.247Z,1013.9
2023-04-11T06:42:02.191Z,1013.9
2023-04-11T06:43:02.295Z,1013.8
2023-04-11T06:44:02.212Z,1013.8
2023-04-11T06:45:02.372Z,1013.8
2023-04-11T06:46:02.256Z,1013.8
2023-04-11T06:47:02.476Z,1013.8
2023-04-11T06:48:02.628Z,1013.8
2023-04-11T06:49:02.450Z,1013.7
2023-04-11T06:50:02.439Z,1013.7
2023-04-11T06:51:02.466Z,1013.7
2023-04-11T06:52:02.442Z,1013.7
2023-04-11T06:53:02.288Z,1013.7
2023-04-11T06:54:02.434Z,1013.7
2023-04-11T06:55:02.346Z,1013.7
2023-04-11T06:56:02.293Z,1013.7
2023-04-11T06:57:02.382Z,1013.6
2023-04-11T06:58:02.305Z,1013.6
2023-04-11T06:59:02.273Z,1013.5
2023-04-11T07:00:03.300Z,1013.6
2023-04-11T07:01:02.193Z,1013.5
2023-04-11T07:02:02.939Z,1013.5
2023-04-11T07:03:02.371Z,1013.5
2023-04-11T07:04:03.043Z,1013.5
2023-04-11T07:05:02.290Z,1013.5
2023-04-11T07:06:02.236Z,1013.6
2023-04-11T07:07:02.215Z,1013.6
2023-04-11T07:08:02.042Z,1013.6
2023-04-11T07:09:02.250Z,1013.6
2023-04-11T07:10:02.083Z,1013.6
2023-04-11T07:11:02.102Z,1013.6
2023-04-11T07:12:02.033Z,1013.7
2023-04-11T07:13:02.078Z,1013.7
2023-04-11T07:14:02.044Z,1013.7
2023-04-11T07:15:02.107Z,1013.7
2023-04-11T07:16:02.322Z,1013.7
2023-04-11T07:17:02.192Z,1013.7
2023-04-11T07:18:02.530Z,1013.6
2023-04-11T07:19:02.478Z,1013.7
2023-04-11T07:20:02.476Z,1013.7
2023-04-11T07:21:02.360Z,1013.7
2023-04-11T07:22:02.338Z,1013.7
2023-04-11T07:23:02.261Z,1013.7
2023-04-11T07:24:02.427Z,1013.7
2023-04-11T07:25:02.471Z,1013.7
2023-04-11T07:26:02.241Z,1013.7
2023-04-11T07:27:02.366Z,1013.7
2023-04-11T07:28:02.265Z,1013.7
2023-04-11T07:29:02.173Z,1013.7
2023-04-11T07:30:02.272Z,1013.7
2023-04-11T07:31:02.332Z,1013.7
2023-04-11T07:32:02.789Z,1013.7
2023-04-11T07:33:02.709Z,1013.7
2023-04-11T07:34:02.616Z,1013.7
2023-04-11T07:35:02.635Z,1013.7
2023-04-11T07:36:02.652Z,1013.6
2023-04-11T07:37:02.643Z,1013.5
2023-04-11T07:38:02.570Z,1013.5
2023-04-11T07:39:02.657Z,1013.4
2023-04-11T07:40:02.619Z,1013.4
2023-04-11T07:41:02.705Z,1013.2
2023-04-11T07:42:02.629Z,1013.2
2023-04-11T07:43:02.752Z,1013.2
2023-04-11T07:44:02.604Z,1013.2
2023-04-11T07:45:02.741Z,1013.1
2023-04-11T07:46:01.739Z,1013.1
2023-04-11T07:47:01.784Z,1013.2
2023-04-11T07:48:02.050Z,1013.1
2023-04-11T07:49:01.813Z,1013.1
2023-04-11T07:50:01.934Z,1013
2023-04-11T07:51:01.784Z,1013.1
2023-04-11T07:52:01.940Z,1013.1
2023-04-11T07:53:01.736Z,1013.1
2023-04-11T07:54:01.847Z,1013
2023-04-11T07:55:01.894Z,1013
2023-04-11T07:56:01.971Z,1013
2023-04-11T07:57:01.619Z,1013.1
2023-04-11T07:58:01.672Z,1013.1
2023-04-11T07:59:02.802Z,1013.1
2023-04-11T08:00:04.497Z,1013.1
2023-04-11T08:01:02.460Z,1013.1
2023-04-11T08:03:02.574Z,1013.1
2023-04-11T08:04:03.961Z,1013.1
2023-04-11T08:05:02.587Z,1013.1
2023-04-11T08:06:02.436Z,1013.1
2023-04-11T08:07:02.556Z,1013.1
2023-04-11T08:08:02.285Z,1013.1
2023-04-11T08:09:02.404Z,1013.1
2023-04-11T08:10:02.420Z,1013.1
2023-04-11T08:11:02.259Z,1013.1
2023-04-11T08:12:02.435Z,1013.1
2023-04-11T08:13:02.299Z,1013.1
2023-04-11T08:14:02.234Z,1013.1
2023-04-11T08:15:02.270Z,1013
2023-04-11T08:16:02.321Z,1013.1
2023-04-11T08:17:02.696Z,1013
2023-04-11T08:18:02.622Z,1012.9
2023-04-11T08:19:02.396Z,1013
2023-04-11T08:20:03.130Z,1013
2023-04-11T08:21:01.790Z,1013
2023-04-11T08:22:01.916Z,1013
2023-04-11T08:23:05.824Z,1012.9
2023-04-11T08:24:02.621Z,1012.9
2023-04-11T08:25:02.713Z,1012.9
2023-04-11T08:26:02.602Z,1012.9
2023-04-11T08:27:01.692Z,1012.9
2023-04-11T08:28:02.708Z,1012.9
2023-04-11T08:29:01.645Z,1012.9
2023-04-11T08:30:01.733Z,1012.9
2023-04-11T08:31:03.150Z,1012.9
2023-04-11T08:33:02.225Z,1012.9
2023-04-11T08:34:07.649Z,1012.8
2023-04-11T08:35:02.425Z,1012.8
2023-04-11T08:36:02.735Z,1012.7
2023-04-11T08:37:02.471Z,1012.7
2023-04-11T08:38:02.642Z,1012.7
2023-04-11T08:39:02.543Z,1012.8
2023-04-11T08:40:03.029Z,1012.8
2023-04-11T08:41:01.757Z,1012.7
2023-04-11T08:42:01.759Z,1012.8
2023-04-11T08:43:01.922Z,1012.7
2023-04-11T08:44:01.724Z,1012.8
2023-04-11T08:45:03.104Z,1012.7
2023-04-11T08:46:01.846Z,1012.7
2023-04-11T08:47:02.057Z,1012.7
2023-04-11T08:48:02.427Z,1012.6
2023-04-11T08:49:02.269Z,1012.6
2023-04-11T08:50:02.167Z,1012.6
2023-04-11T08:51:02.201Z,1012.7
2023-04-11T08:52:02.276Z,1012.6
2023-04-11T08:53:02.056Z,1012.6
2023-04-11T08:54:02.209Z,1012.7
2023-04-11T08:55:02.385Z,1012.6
2023-04-11T08:56:02.023Z,1012.7
2023-04-11T08:57:02.131Z,1012.6
2023-04-11T08:58:02.034Z,1012.6
2023-04-11T08:59:02.115Z,1012.5
2023-04-11T09:00:02.282Z,1012.5
2023-04-11T09:01:02.188Z,1012.5
2023-04-11T09:02:02.656Z,1012.5
2023-04-11T09:03:03.073Z,1012.5
2023-04-11T09:04:01.985Z,1012.4
2023-04-11T09:05:02.085Z,1012.4
2023-04-11T09:06:01.846Z,1012.4
2023-04-11T09:07:01.952Z,1012.4
2023-04-11T09:08:01.944Z,1012.4
2023-04-11T09:09:02.064Z,1012.3
2023-04-11T09:10:01.940Z,1012.3
2023-04-11T09:11:02.038Z,1012.3
2023-04-11T09:12:01.867Z,1012.3
2023-04-11T09:13:01.844Z,1012.3
2023-04-11T09:14:01.836Z,1012.3
2023-04-11T09:15:01.737Z,1012.2
2023-04-11T09:16:01.918Z,1012.3
2023-04-11T09:17:02.415Z,1012.3
2023-04-11T09:18:02.691Z,1012.2
2023-04-11T09:19:02.525Z,1012.2
2023-04-11T09:20:02.671Z,1012.2
2023-04-11T09:21:02.624Z,1012.2
2023-04-11T09:22:02.758Z,1012.2
2023-04-11T09:23:02.569Z,1012.1
2023-04-11T09:24:02.683Z,1012.1
2023-04-11T09:25:02.673Z,1012.1
2023-04-11T09:26:01.692Z,1012.1
2023-04-11T09:27:02.704Z,1012.1
2023-04-11T09:28:01.627Z,1012
2023-04-11T09:29:01.903Z,1012
2023-04-11T09:30:01.619Z,1012.1
2023-04-11T09:31:02.862Z,1012
2023-04-11T09:33:02.150Z,1012
2023-04-11T09:34:01.812Z,1012.1
2023-04-11T09:35:01.970Z,1012.1
2023-04-11T09:36:01.857Z,1012.1
2023-04-11T09:37:01.844Z,1012
2023-04-11T09:38:01.836Z,1012
2023-04-11T09:39:01.814Z,1011.9
2023-04-11T09:40:03.110Z,1012
2023-04-11T09:41:02.713Z,1012
2023-04-11T09:42:02.680Z,1011.9
2023-04-11T09:43:02.602Z,1011.9
2023-04-11T09:44:02.945Z,1011.9
2023-04-11T09:45:02.617Z,1011.9
2023-04-11T09:46:02.783Z,1011.9
2023-04-11T09:48:02.186Z,1011.9
2023-04-11T09:49:03.518Z,1011.9
2023-04-11T09:50:02.262Z,1011.8
2023-04-11T09:51:02.423Z,1011.8
2023-04-11T09:52:02.328Z,1011.7
2023-04-11T09:53:02.294Z,1011.8
2023-04-11T09:54:02.419Z,1011.8
2023-04-11T09:55:02.351Z,1011.8
2023-04-11T09:56:02.504Z,1011.7
2023-04-11T09:57:02.301Z,1011.6
2023-04-11T09:58:02.395Z,1011.6
2023-04-11T09:59:02.377Z,1011.6
2023-04-11T10:00:02.494Z,1011.6
2023-04-11T10:01:02.492Z,1011.6
2023-04-11T10:02:02.866Z,1011.7
2023-04-11T10:03:03.599Z,1011.6
2023-04-11T10:04:02.529Z,1011.5
2023-04-11T10:05:02.850Z,1011.5
2023-04-11T10:06:02.561Z,1011.5
2023-04-11T10:07:02.699Z,1011.5
2023-04-11T10:08:02.580Z,1011.5
2023-04-11T10:09:02.684Z,1011.5
2023-04-11T10:10:02.676Z,1011.5
2023-04-11T10:11:02.627Z,1011.4
2023-04-11T10:12:02.579Z,1011.5
2023-04-11T10:13:02.714Z,1011.4
2023-04-11T10:14:02.649Z,1011.5
2023-04-11T10:15:01.609Z,1011.4
2023-04-11T10:16:02.755Z,1011.4
2023-04-11T10:18:02.053Z,1011.4
2023-04-11T10:19:01.934Z,1011.3
2023-04-11T10:20:01.965Z,1011.4
2023-04-11T10:21:01.740Z,1011.4
2023-04-11T10:22:01.888Z,1011.3
2023-04-11T10:23:01.819Z,1011.3
2023-04-11T10:24:02.179Z,1011.3
2023-04-11T10:25:01.849Z,1011.3
2023-04-11T10:26:01.914Z,1011.2
2023-04-11T10:27:01.850Z,1011.3
2023-04-11T10:28:02.063Z,1011.1
2023-04-11T10:29:01.702Z,1011.2
2023-04-11T10:30:01.803Z,1011.2
2023-04-11T10:31:01.764Z,1011.2
2023-04-11T10:32:02.694Z,1011.2
2023-04-11T10:33:02.636Z,1011.2
2023-04-11T10:34:02.440Z,1011.2
2023-04-11T10:35:02.509Z,1011.2
2023-04-11T10:36:02.726Z,1011.2
2023-04-11T10:37:02.467Z,1011.1
2023-04-11T10:38:02.443Z,1011.1
2023-04-11T10:39:02.453Z,1011.1
2023-04-11T10:40:02.485Z,1011.2
2023-04-11T10:41:02.409Z,1011.2
2023-04-11T10:42:02.392Z,1011.1
2023-04-11T10:43:02.572Z,1011.1
2023-04-11T10:44:02.539Z,1011.1
2023-04-11T10:45:02.629Z,1011.1
2023-04-11T10:46:02.584Z,1011
2023-04-11T10:48:02.061Z,1011
2023-04-11T10:49:01.844Z,1011
2023-04-11T10:50:01.841Z,1011
2023-04-11T10:51:01.668Z,1011
2023-04-11T10:52:01.765Z,1011
2023-04-11T10:53:01.642Z,1011
2023-04-11T10:54:03.573Z,1011
2023-04-11T10:55:02.499Z,1010.9
2023-04-11T10:56:02.443Z,1010.8
2023-04-11T10:57:02.496Z,1010.8
2023-04-11T10:58:02.403Z,1010.8
2023-04-11T10:59:02.540Z,1010.8
2023-04-11T11:00:02.500Z,1010.8
2023-04-11T11:01:02.626Z,1010.9
2023-04-11T11:03:02.194Z,1010.7
2023-04-11T11:04:03.165Z,1010.8
2023-04-11T11:05:02.225Z,1010.7
2023-04-11T11:06:02.039Z,1010.7
2023-04-11T11:07:02.405Z,1010.8
2023-04-11T11:08:02.189Z,1010.7
2023-04-11T11:09:02.304Z,1010.7
2023-04-11T11:10:02.372Z,1010.7
2023-04-11T11:11:02.154Z,1010.7
2023-04-11T11:12:02.236Z,1010.7
2023-04-11T11:13:02.099Z,1010.7
2023-04-11T11:14:02.206Z,1010.7
2023-04-11T11:15:02.208Z,1010.7
2023-04-11T11:16:02.246Z,1010.7
2023-04-11T11:17:02.597Z,1010.8
2023-04-11T11:18:02.713Z,1010.8
2023-04-11T11:19:02.431Z,1010.7
2023-04-11T11:20:02.585Z,1010.7
2023-04-11T11:21:02.393Z,1010.7
2023-04-11T11:22:02.554Z,1010.7
2023-04-11T11:23:02.438Z,1010.7
2023-04-11T11:24:02.569Z,1010.8
2023-04-11T11:25:02.567Z,1010.7
2023-04-11T11:26:02.726Z,1010.7
2023-04-11T11:27:01.725Z,1010.7
2023-04-11T11:28:01.751Z,1010.7
2023-04-11T11:29:02.732Z,1010.7
2023-04-11T11:30:01.716Z,1010.7
2023-04-11T11:31:01.731Z,1010.7
2023-04-11T11:32:01.768Z,1010.7
2023-04-11T11:33:02.063Z,1010.7
2023-04-11T11:34:24.418Z,1010.7
2023-04-11T11:35:02.191Z,1010.7
2023-04-11T11:36:02.246Z,1010.7
2023-04-11T11:37:02.507Z,1010.7
2023-04-11T11:38:02.242Z,1010.7
2023-04-11T11:39:02.406Z,1010.7
2023-04-11T11:40:02.324Z,1010.6
2023-04-11T11:41:02.213Z,1010.7
2023-04-11T11:42:02.353Z,1010.6
2023-04-11T11:43:02.380Z,1010.6
2023-04-11T11:44:02.233Z,1010.6
2023-04-11T11:45:02.394Z,1010.7
2023-04-11T11:46:05.579Z,1010.7
2023-04-11T11:48:03.112Z,1010.7
2023-04-11T11:49:02.340Z,1010.7
2023-04-11T11:50:02.137Z,1010.7
2023-04-11T11:51:02.007Z,1010.7
2023-04-11T11:52:02.150Z,1010.7
2023-04-11T11:53:02.066Z,1010.8
2023-04-11T11:54:02.351Z,1010.7
2023-04-11T11:55:02.174Z,1010.6
2023-04-11T11:56:02.123Z,1010.7
2023-04-11T11:57:02.109Z,1010.7
2023-04-11T11:58:02.066Z,1010.8
2023-04-11T11:59:01.903Z,1010.8
2023-04-11T12:00:03.035Z,1010.8
2023-04-11T12:01:01.973Z,1010.8
2023-04-11T12:02:02.329Z,1010.8
2023-04-11T12:03:02.775Z,1010.7
2023-04-11T12:04:03.657Z,1010.9
2023-04-11T12:05:02.609Z,1010.8
2023-04-11T12:06:02.661Z,1010.8
2023-04-11T12:07:02.427Z,1010.8
2023-04-11T12:08:02.316Z,1010.7
2023-04-11T12:09:02.419Z,1010.7
2023-04-11T12:10:02.427Z,1010.6
2023-04-11T12:11:02.211Z,1010.7
2023-04-11T12:12:02.263Z,1010.6
2023-04-11T12:13:02.302Z,1010.7
2023-04-11T12:14:02.116Z,1010.7
2023-04-11T12:15:02.227Z,1010.6
2023-04-11T12:16:02.432Z,1010.5
2023-04-11T12:17:02.233Z,1010.6
2023-04-11T12:18:02.483Z,1010.5
2023-04-11T12:19:02.331Z,1010.5
2023-04-11T12:20:02.288Z,1010.6
2023-04-11T12:21:02.182Z,1010.5
2023-04-11T12:22:02.101Z,1010.5
2023-04-11T12:23:02.152Z,1010.5
2023-04-11T12:24:02.049Z,1010.4
2023-04-11T12:25:02.051Z,1010.5
2023-04-11T12:26:01.956Z,1010.4
2023-04-11T12:27:10.658Z,1010.4
2023-04-11T12:28:01.955Z,1010.5
2023-04-11T12:29:01.979Z,1010.6
2023-04-11T12:30:01.860Z,1010.4
2023-04-11T12:31:02.021Z,1010.4
2023-04-11T12:32:02.043Z,1010.3
2023-04-11T12:33:02.287Z,1010.4
2023-04-11T12:34:02.082Z,1010.4
2023-04-11T12:35:02.203Z,1010.4
2023-04-11T12:36:01.876Z,1010.4
2023-04-11T12:37:01.939Z,1010.4
2023-04-11T12:38:01.873Z,1010.2
2023-04-11T12:39:01.831Z,1010.3
2023-04-11T12:40:01.709Z,1010.3
2023-04-11T12:41:32.889Z,1010.2
2023-04-11T12:42:02.649Z,1010.2
2023-04-11T12:43:02.623Z,1010.2
2023-04-11T12:44:02.778Z,1010.2
2023-04-11T12:45:02.576Z,1010.1
2023-04-11T12:46:02.484Z,1010.1